sensor_id;sensor_type;location;lat;lon;timestamp;temperature;humidity
12602;DHT22;30282;16.436;99.370;2023-01-16T00:00:42;15.70;99.90
12602;DHT22;30282;16.436;99.370;2023-01-16T00:03:11;15.80;99.90
12602;DHT22;30282;16.436;99.370;2023-01-16T00:05:40;15.90;99.90
12602;DHT22;30282;16.436;99.370;2023-01-16T00:08:12;15.90;99.90
12602;DHT22;30282;16.436;99.370;2023-01-16T00:10:43;15.90;99.90
12602;DHT22;30282;16.436;99.370;2023-01-16T00:13:13;15.80;99.90
12602;DHT22;30282;16.436;99.370;2023-01-16T00:15:45;15.80;99.90
12602;DHT22;30282;16.436;99.370;2023-01-16T00:18:14;15.80;99.90
12602;DHT22;30282;16.436;99.370;2023-01-16T00:20:45;15.90;99.90
12602;DHT22;30282;16.436;99.370;2023-01-16T00:23:17;15.80;99.90
12602;DHT22;30282;16.436;99.370;2023-01-16T00:25:46;15.80;99.90
12602;DHT22;30282;16.436;99.370;2023-01-16T00:28:18;15.80;99.90
12602;DHT22;30282;16.436;99.370;2023-01-16T00:30:48;16.00;99.90
12602;DHT22;30282;16.436;99.370;2023-01-16T00:33:17;16.00;99.90
12602;DHT22;30282;16.436;99.370;2023-01-16T00:35:47;16.00;99.90
12602;DHT22;30282;16.436;99.370;2023-01-16T00:38:18;16.10;99.90
12602;DHT22;30282;16.436;99.370;2023-01-16T00:40:48;16.20;99.90
12602;DHT22;30282;16.436;99.370;2023-01-16T00:43:23;16.50;99.90
12602;DHT22;30282;16.436;99.370;2023-01-16T00:45:52;16.60;99.90
12602;DHT22;30282;16.436;99.370;2023-01-16T00:48:23;16.70;99.90
12602;DHT22;30282;16.436;99.370;2023-01-16T00:50:52;17.00;99.90
12602;DHT22;30282;16.436;99.370;2023-01-16T00:53:24;17.20;99.90
12602;DHT22;30282;16.436;99.370;2023-01-16T00:55:54;17.50;99.90
12602;DHT22;30282;16.436;99.370;2023-01-16T00:58:23;17.70;99.90
12602;DHT22;30282;16.436;99.370;2023-01-16T01:00:52;18.00;99.90
12602;DHT22;30282;16.436;99.370;2023-01-16T01:03:21;18.30;99.90
12602;DHT22;30282;16.436;99.370;2023-01-16T01:05:50;18.60;99.90
12602;DHT22;30282;16.436;99.370;2023-01-16T01:08:22;18.80;99.90
12602;DHT22;30282;16.436;99.370;2023-01-16T01:10:52;19.00;99.90
12602;DHT22;30282;16.436;99.370;2023-01-16T01:13:21;19.20;99.90
12602;DHT22;30282;16.436;99.370;2023-01-16T01:15:50;19.30;99.90
12602;DHT22;30282;16.436;99.370;2023-01-16T01:18:21;19.40;99.90
12602;DHT22;30282;16.436;99.370;2023-01-16T01:20:50;19.60;99.90
12602;DHT22;30282;16.436;99.370;2023-01-16T01:23:20;19.60;99.90
12602;DHT22;30282;16.436;99.370;2023-01-16T01:25:51;19.80;99.90
12602;DHT22;30282;16.436;99.370;2023-01-16T01:28:21;20.00;99.90
12602;DHT22;30282;16.436;99.370;2023-01-16T01:30:50;20.10;99.90
12602;DHT22;30282;16.436;99.370;2023-01-16T01:33:19;20.10;99.90
12602;DHT22;30282;16.436;99.370;2023-01-16T01:35:48;20.30;99.90
12602;DHT22;30282;16.436;99.370;2023-01-16T01:38:18;20.40;99.90
12602;DHT22;30282;16.436;99.370;2023-01-16T01:40:47;20.60;99.90
12602;DHT22;30282;16.436;99.370;2023-01-16T01:43:19;20.70;99.90
12602;DHT22;30282;16.436;99.370;2023-01-16T01:45:50;20.90;99.90
12602;DHT22;30282;16.436;99.370;2023-01-16T01:48:23;21.00;99.90
12602;DHT22;30282;16.436;99.370;2023-01-16T01:50:56;21.10;99.90
12602;DHT22;30282;16.436;99.370;2023-01-16T01:53:29;21.20;99.90
12602;DHT22;30282;16.436;99.370;2023-01-16T01:56:02;21.40;99.90
12602;DHT22;30282;16.436;99.370;2023-01-16T01:58:34;21.50;99.90
12602;DHT22;30282;16.436;99.370;2023-01-16T02:01:04;21.60;99.90
12602;DHT22;30282;16.436;99.370;2023-01-16T02:03:36;21.70;99.90
12602;DHT22;30282;16.436;99.370;2023-01-16T02:06:08;21.80;99.90
12602;DHT22;30282;16.436;99.370;2023-01-16T02:08:42;21.90;99.90
12602;DHT22;30282;16.436;99.370;2023-01-16T02:11:14;22.00;99.90
12602;DHT22;30282;16.436;99.370;2023-01-16T02:13:58;22.20;99.90
12602;DHT22;30282;16.436;99.370;2023-01-16T02:16:28;22.30;99.90
12602;DHT22;30282;16.436;99.370;2023-01-16T02:19:24;22.40;99.90
12602;DHT22;30282;16.436;99.370;2023-01-16T02:31:20;22.70;99.90
12602;DHT22;30282;16.436;99.370;2023-01-16T02:34:02;22.90;99.90
12602;DHT22;30282;16.436;99.370;2023-01-16T02:36:39;23.10;99.90
12602;DHT22;30282;16.436;99.370;2023-01-16T02:39:18;23.20;99.90
12602;DHT22;30282;16.436;99.370;2023-01-16T02:41:56;23.30;99.90
12602;DHT22;30282;16.436;99.370;2023-01-16T02:44:32;23.40;99.90
12602;DHT22;30282;16.436;99.370;2023-01-16T02:47:12;23.40;99.90
12602;DHT22;30282;16.436;99.370;2023-01-16T02:49:47;23.50;99.90
12602;DHT22;30282;16.436;99.370;2023-01-16T02:52:23;23.50;99.90
12602;DHT22;30282;16.436;99.370;2023-01-16T02:54:56;23.60;99.90
12602;DHT22;30282;16.436;99.370;2023-01-16T02:57:30;23.60;99.90
12602;DHT22;30282;16.436;99.370;2023-01-16T03:00:03;23.70;99.90
12602;DHT22;30282;16.436;99.370;2023-01-16T03:02:34;23.70;99.90
12602;DHT22;30282;16.436;99.370;2023-01-16T03:05:04;23.80;99.90
12602;DHT22;30282;16.436;99.370;2023-01-16T03:08:01;23.90;99.90
12602;DHT22;30282;16.436;99.370;2023-01-16T03:11:01;24.10;99.90
12602;DHT22;30282;16.436;99.370;2023-01-16T03:13:49;24.20;99.90
12602;DHT22;30282;16.436;99.370;2023-01-16T03:16:28;24.30;99.90
12602;DHT22;30282;16.436;99.370;2023-01-16T03:19:12;24.30;99.90
12602;DHT22;30282;16.436;99.370;2023-01-16T03:21:52;24.40;99.90
12602;DHT22;30282;16.436;99.370;2023-01-16T03:24:30;24.60;99.90
12602;DHT22;30282;16.436;99.370;2023-01-16T03:27:06;24.70;99.90
12602;DHT22;30282;16.436;99.370;2023-01-16T03:29:42;24.70;99.90
12602;DHT22;30282;16.436;99.370;2023-01-16T03:32:20;24.90;99.90
12602;DHT22;30282;16.436;99.370;2023-01-16T03:34:57;24.90;99.90
12602;DHT22;30282;16.436;99.370;2023-01-16T03:37:33;25.00;99.90
12602;DHT22;30282;16.436;99.370;2023-01-16T03:40:10;25.00;99.90
12602;DHT22;30282;16.436;99.370;2023-01-16T03:42:46;25.20;99.90
12602;DHT22;30282;16.436;99.370;2023-01-16T03:45:21;25.20;99.90
12602;DHT22;30282;16.436;99.370;2023-01-16T03:47:54;25.40;99.90
12602;DHT22;30282;16.436;99.370;2023-01-16T03:50:27;25.50;99.90
12602;DHT22;30282;16.436;99.370;2023-01-16T03:53:01;25.50;99.90
12602;DHT22;30282;16.436;99.370;2023-01-16T03:55:34;25.60;99.90
12602;DHT22;30282;16.436;99.370;2023-01-16T03:58:07;25.70;99.90
12602;DHT22;30282;16.436;99.370;2023-01-16T04:00:43;25.70;99.90
12602;DHT22;30282;16.436;99.370;2023-01-16T04:03:16;25.70;99.90
12602;DHT22;30282;16.436;99.370;2023-01-16T04:05:53;25.90;99.90
12602;DHT22;30282;16.436;99.370;2023-01-16T04:08:27;26.10;99.90
12602;DHT22;30282;16.436;99.370;2023-01-16T04:10:58;26.30;99.90
12602;DHT22;30282;16.436;99.370;2023-01-16T04:13:30;26.50;99.90
12602;DHT22;30282;16.436;99.370;2023-01-16T04:16:02;26.60;99.90
12602;DHT22;30282;16.436;99.370;2023-01-16T04:18:35;26.70;99.90
12602;DHT22;30282;16.436;99.370;2023-01-16T04:21:07;26.80;99.90
12602;DHT22;30282;16.436;99.370;2023-01-16T04:23:36;26.90;99.90
12602;DHT22;30282;16.436;99.370;2023-01-16T04:26:05;27.00;99.90
12602;DHT22;30282;16.436;99.370;2023-01-16T04:28:34;27.20;99.90
12602;DHT22;30282;16.436;99.370;2023-01-16T04:31:04;27.30;99.90
12602;DHT22;30282;16.436;99.370;2023-01-16T04:33:32;27.60;99.90
12602;DHT22;30282;16.436;99.370;2023-01-16T04:36:01;27.70;99.90
12602;DHT22;30282;16.436;99.370;2023-01-16T04:38:32;27.90;99.90
12602;DHT22;30282;16.436;99.370;2023-01-16T04:41:01;28.00;99.90
12602;DHT22;30282;16.436;99.370;2023-01-16T04:43:30;28.00;99.90
12602;DHT22;30282;16.436;99.370;2023-01-16T04:45:59;28.10;99.90
12602;DHT22;30282;16.436;99.370;2023-01-16T04:48:28;28.20;99.90
12602;DHT22;30282;16.436;99.370;2023-01-16T04:50:57;28.30;99.90
12602;DHT22;30282;16.436;99.370;2023-01-16T04:53:26;28.50;99.90
12602;DHT22;30282;16.436;99.370;2023-01-16T04:55:56;28.50;99.90
12602;DHT22;30282;16.436;99.370;2023-01-16T04:58:25;28.70;99.90
12602;DHT22;30282;16.436;99.370;2023-01-16T05:00:54;28.70;99.90
12602;DHT22;30282;16.436;99.370;2023-01-16T05:03:23;28.80;99.90
12602;DHT22;30282;16.436;99.370;2023-01-16T05:05:52;28.90;99.90
12602;DHT22;30282;16.436;99.370;2023-01-16T05:08:21;29.20;99.90
12602;DHT22;30282;16.436;99.370;2023-01-16T05:10:56;29.30;99.90
12602;DHT22;30282;16.436;99.370;2023-01-16T05:13:27;29.40;99.90
12602;DHT22;30282;16.436;99.370;2023-01-16T05:15:57;29.40;99.90
12602;DHT22;30282;16.436;99.370;2023-01-16T05:18:26;29.50;99.90
12602;DHT22;30282;16.436;99.370;2023-01-16T05:20:56;29.50;99.90
12602;DHT22;30282;16.436;99.370;2023-01-16T05:23:25;29.60;99.90
12602;DHT22;30282;16.436;99.370;2023-01-16T05:25:56;29.80;99.90
12602;DHT22;30282;16.436;99.370;2023-01-16T05:28:25;30.00;99.90
12602;DHT22;30282;16.436;99.370;2023-01-16T05:30:54;30.00;99.90
12602;DHT22;30282;16.436;99.370;2023-01-16T05:33:23;30.10;99.90
12602;DHT22;30282;16.436;99.370;2023-01-16T05:35:52;30.30;99.90
12602;DHT22;30282;16.436;99.370;2023-01-16T05:38:21;30.30;99.90
12602;DHT22;30282;16.436;99.370;2023-01-16T05:40:50;30.50;99.90
12602;DHT22;30282;16.436;99.370;2023-01-16T05:43:22;30.50;99.90
12602;DHT22;30282;16.436;99.370;2023-01-16T05:45:51;30.60;99.90
12602;DHT22;30282;16.436;99.370;2023-01-16T05:48:19;30.70;99.90
12602;DHT22;30282;16.436;99.370;2023-01-16T05:50:50;30.80;99.90
12602;DHT22;30282;16.436;99.370;2023-01-16T05:53:19;30.80;99.90
12602;DHT22;30282;16.436;99.370;2023-01-16T05:55:49;30.80;99.90
12602;DHT22;30282;16.436;99.370;2023-01-16T05:58:18;30.80;99.90
12602;DHT22;30282;16.436;99.370;2023-01-16T06:00:48;30.80;99.90
12602;DHT22;30282;16.436;99.370;2023-01-16T06:03:17;30.70;99.90
12602;DHT22;30282;16.436;99.370;2023-01-16T06:05:47;30.80;99.90
12602;DHT22;30282;16.436;99.370;2023-01-16T06:08:16;31.00;99.90
12602;DHT22;30282;16.436;99.370;2023-01-16T06:10:45;31.10;99.90
12602;DHT22;30282;16.436;99.370;2023-01-16T06:13:14;31.10;99.90
12602;DHT22;30282;16.436;99.370;2023-01-16T06:15:43;31.10;99.90
12602;DHT22;30282;16.436;99.370;2023-01-16T06:18:14;31.10;99.90
12602;DHT22;30282;16.436;99.370;2023-01-16T06:20:43;31.10;99.90
12602;DHT22;30282;16.436;99.370;2023-01-16T06:23:12;31.10;99.90
12602;DHT22;30282;16.436;99.370;2023-01-16T06:25:41;31.20;99.90
12602;DHT22;30282;16.436;99.370;2023-01-16T06:28:10;31.20;99.90
12602;DHT22;30282;16.436;99.370;2023-01-16T06:30:39;31.20;99.90
12602;DHT22;30282;16.436;99.370;2023-01-16T06:33:08;31.20;99.90
12602;DHT22;30282;16.436;99.370;2023-01-16T06:35:39;31.30;99.90
12602;DHT22;30282;16.436;99.370;2023-01-16T06:38:08;31.40;99.90
12602;DHT22;30282;16.436;99.370;2023-01-16T06:40:37;31.40;99.90
12602;DHT22;30282;16.436;99.370;2023-01-16T06:43:06;31.30;99.90
12602;DHT22;30282;16.436;99.370;2023-01-16T06:45:35;31.20;99.90
12602;DHT22;30282;16.436;99.370;2023-01-16T06:48:04;31.10;99.90
12602;DHT22;30282;16.436;99.370;2023-01-16T06:50:33;31.10;99.90
12602;DHT22;30282;16.436;99.370;2023-01-16T06:53:03;31.00;99.90
12602;DHT22;30282;16.436;99.370;2023-01-16T06:55:32;30.80;99.90
12602;DHT22;30282;16.436;99.370;2023-01-16T06:58:01;30.80;99.90
12602;DHT22;30282;16.436;99.370;2023-01-16T07:00:30;30.80;99.90
12602;DHT22;30282;16.436;99.370;2023-01-16T07:03:01;30.80;99.90
12602;DHT22;30282;16.436;99.370;2023-01-16T07:05:31;30.80;99.90
12602;DHT22;30282;16.436;99.370;2023-01-16T07:08:00;30.80;99.90
12602;DHT22;30282;16.436;99.370;2023-01-16T07:10:30;30.90;99.90
12602;DHT22;30282;16.436;99.370;2023-01-16T07:12:59;30.90;99.90
12602;DHT22;30282;16.436;99.370;2023-01-16T07:15:28;31.00;99.90
12602;DHT22;30282;16.436;99.370;2023-01-16T07:18:15;31.10;99.90
12602;DHT22;30282;16.436;99.370;2023-01-16T07:21:02;31.10;99.90
12602;DHT22;30282;16.436;99.370;2023-01-16T07:23:50;31.20;99.90
12602;DHT22;30282;16.436;99.370;2023-01-16T07:26:21;31.30;99.90
12602;DHT22;30282;16.436;99.370;2023-01-16T07:28:51;31.40;99.90
12602;DHT22;30282;16.436;99.370;2023-01-16T07:31:22;31.40;99.90
12602;DHT22;30282;16.436;99.370;2023-01-16T07:33:51;31.30;99.90
12602;DHT22;30282;16.436;99.370;2023-01-16T07:36:20;31.40;99.90
12602;DHT22;30282;16.436;99.370;2023-01-16T07:38:49;31.40;99.90
12602;DHT22;30282;16.436;99.370;2023-01-16T07:41:18;31.40;99.90
12602;DHT22;30282;16.436;99.370;2023-01-16T07:43:48;31.40;99.90
12602;DHT22;30282;16.436;99.370;2023-01-16T07:46:18;31.40;99.90
12602;DHT22;30282;16.436;99.370;2023-01-16T07:48:47;31.40;99.90
12602;DHT22;30282;16.436;99.370;2023-01-16T07:51:18;31.30;99.90
12602;DHT22;30282;16.436;99.370;2023-01-16T07:53:47;31.30;99.90
12602;DHT22;30282;16.436;99.370;2023-01-16T07:56:16;31.40;99.90
12602;DHT22;30282;16.436;99.370;2023-01-16T07:58:45;31.40;99.90
12602;DHT22;30282;16.436;99.370;2023-01-16T08:01:18;31.40;99.90
12602;DHT22;30282;16.436;99.370;2023-01-16T08:03:46;31.40;99.90
12602;DHT22;30282;16.436;99.370;2023-01-16T08:06:15;31.40;99.90
12602;DHT22;30282;16.436;99.370;2023-01-16T08:08:44;31.40;99.90
12602;DHT22;30282;16.436;99.370;2023-01-16T08:11:13;31.40;99.90
12602;DHT22;30282;16.436;99.370;2023-01-16T08:13:59;31.30;99.90
12602;DHT22;30282;16.436;99.370;2023-01-16T08:16:30;31.30;99.90
12602;DHT22;30282;16.436;99.370;2023-01-16T08:18:59;31.40;99.90
12602;DHT22;30282;16.436;99.370;2023-01-16T08:21:28;31.40;99.90
12602;DHT22;30282;16.436;99.370;2023-01-16T08:23:57;31.40;99.90
12602;DHT22;30282;16.436;99.370;2023-01-16T08:26:26;31.50;99.90
12602;DHT22;30282;16.436;99.370;2023-01-16T08:28:55;31.50;99.90
12602;DHT22;30282;16.436;99.370;2023-01-16T08:31:24;31.40;99.90
12602;DHT22;30282;16.436;99.370;2023-01-16T08:33:55;31.50;99.90
12602;DHT22;30282;16.436;99.370;2023-01-16T08:36:24;31.40;99.90
12602;DHT22;30282;16.436;99.370;2023-01-16T08:38:53;31.40;99.90
12602;DHT22;30282;16.436;99.370;2023-01-16T08:41:22;31.40;99.90
12602;DHT22;30282;16.436;99.370;2023-01-16T08:44:10;31.40;99.90
12602;DHT22;30282;16.436;99.370;2023-01-16T08:46:58;31.30;99.90
12602;DHT22;30282;16.436;99.370;2023-01-16T08:49:47;31.20;99.90
12602;DHT22;30282;16.436;99.370;2023-01-16T08:52:33;31.20;99.90
12602;DHT22;30282;16.436;99.370;2023-01-16T08:55:04;31.20;99.90
12602;DHT22;30282;16.436;99.370;2023-01-16T08:57:33;31.20;99.90
12602;DHT22;30282;16.436;99.370;2023-01-16T09:00:04;31.20;99.90
12602;DHT22;30282;16.436;99.370;2023-01-16T09:02:33;31.20;99.90
12602;DHT22;30282;16.436;99.370;2023-01-16T09:05:05;31.20;99.90
12602;DHT22;30282;16.436;99.370;2023-01-16T09:07:34;31.20;99.90
12602;DHT22;30282;16.436;99.370;2023-01-16T09:10:04;31.10;99.90
12602;DHT22;30282;16.436;99.370;2023-01-16T09:12:33;31.10;99.90
12602;DHT22;30282;16.436;99.370;2023-01-16T09:15:18;31.10;99.90
12602;DHT22;30282;16.436;99.370;2023-01-16T09:17:47;31.00;99.90
12602;DHT22;30282;16.436;99.370;2023-01-16T09:20:18;31.00;99.90
12602;DHT22;30282;16.436;99.370;2023-01-16T09:22:47;30.90;99.90
12602;DHT22;30282;16.436;99.370;2023-01-16T09:25:16;30.90;99.90
12602;DHT22;30282;16.436;99.370;2023-01-16T09:27:45;30.80;99.90
12602;DHT22;30282;16.436;99.370;2023-01-16T09:30:15;30.80;99.90
12602;DHT22;30282;16.436;99.370;2023-01-16T09:32:44;30.80;99.90
12602;DHT22;30282;16.436;99.370;2023-01-16T09:35:14;30.80;99.90
12602;DHT22;30282;16.436;99.370;2023-01-16T09:37:45;30.80;99.90
12602;DHT22;30282;16.436;99.370;2023-01-16T09:40:17;30.70;99.90
12602;DHT22;30282;16.436;99.370;2023-01-16T09:43:08;30.70;99.90
12602;DHT22;30282;16.436;99.370;2023-01-16T09:46:03;30.70;99.90
12602;DHT22;30282;16.436;99.370;2023-01-16T09:48:35;30.70;99.90
12602;DHT22;30282;16.436;99.370;2023-01-16T09:51:07;30.60;99.90
12602;DHT22;30282;16.436;99.370;2023-01-16T09:53:45;30.50;99.90
12602;DHT22;30282;16.436;99.370;2023-01-16T09:56:37;30.50;99.90
12602;DHT22;30282;16.436;99.370;2023-01-16T09:59:32;30.40;99.90
12602;DHT22;30282;16.436;99.370;2023-01-16T10:02:11;30.40;99.90
12602;DHT22;30282;16.436;99.370;2023-01-16T10:04:44;30.40;99.90
12602;DHT22;30282;16.436;99.370;2023-01-16T10:07:31;30.30;99.90
12602;DHT22;30282;16.436;99.370;2023-01-16T10:10:11;30.20;99.90
12602;DHT22;30282;16.436;99.370;2023-01-16T10:12:51;30.20;99.90
12602;DHT22;30282;16.436;99.370;2023-01-16T10:15:28;30.10;99.90
12602;DHT22;30282;16.436;99.370;2023-01-16T10:18:13;30.10;99.90
12602;DHT22;30282;16.436;99.370;2023-01-16T10:21:05;30.00;99.90
12602;DHT22;30282;16.436;99.370;2023-01-16T10:23:46;30.00;99.90
12602;DHT22;30282;16.436;99.370;2023-01-16T10:26:25;29.90;99.90
12602;DHT22;30282;16.436;99.370;2023-01-16T10:29:03;29.80;99.90
12602;DHT22;30282;16.436;99.370;2023-01-16T10:31:36;29.70;99.90
12602;DHT22;30282;16.436;99.370;2023-01-16T10:34:13;29.60;99.90
12602;DHT22;30282;16.436;99.370;2023-01-16T10:36:47;29.60;99.90
12602;DHT22;30282;16.436;99.370;2023-01-16T10:39:18;29.50;99.90
12602;DHT22;30282;16.436;99.370;2023-01-16T10:41:52;29.40;99.90
12602;DHT22;30282;16.436;99.370;2023-01-16T10:44:42;29.30;99.90
12602;DHT22;30282;16.436;99.370;2023-01-16T10:47:31;29.20;99.90
12602;DHT22;30282;16.436;99.370;2023-01-16T10:50:18;29.20;99.90
12602;DHT22;30282;16.436;99.370;2023-01-16T10:52:49;29.00;99.90
12602;DHT22;30282;16.436;99.370;2023-01-16T10:55:18;28.90;99.90
12602;DHT22;30282;16.436;99.370;2023-01-16T10:57:51;28.70;99.90
12602;DHT22;30282;16.436;99.370;2023-01-16T11:00:23;28.70;99.90
12602;DHT22;30282;16.436;99.370;2023-01-16T11:02:58;28.50;99.90
12602;DHT22;30282;16.436;99.370;2023-01-16T11:05:29;28.40;99.90
12602;DHT22;30282;16.436;99.370;2023-01-16T11:08:05;28.30;99.90
12602;DHT22;30282;16.436;99.370;2023-01-16T11:10:35;28.30;99.90
12602;DHT22;30282;16.436;99.370;2023-01-16T11:13:13;28.10;99.90
12602;DHT22;30282;16.436;99.370;2023-01-16T11:16:04;28.10;99.90
12602;DHT22;30282;16.436;99.370;2023-01-16T11:18:49;27.90;99.90
12602;DHT22;30282;16.436;99.370;2023-01-16T11:21:26;27.80;99.90
12602;DHT22;30282;16.436;99.370;2023-01-16T11:23:59;27.70;99.90
12602;DHT22;30282;16.436;99.370;2023-01-16T11:26:28;27.60;99.90
12602;DHT22;30282;16.436;99.370;2023-01-16T11:29:00;27.60;99.90
12602;DHT22;30282;16.436;99.370;2023-01-16T11:31:30;27.60;99.90
12602;DHT22;30282;16.436;99.370;2023-01-16T11:34:02;27.60;99.90
12602;DHT22;30282;16.436;99.370;2023-01-16T11:36:33;27.50;99.90
12602;DHT22;30282;16.436;99.370;2023-01-16T11:39:04;27.30;99.90
12602;DHT22;30282;16.436;99.370;2023-01-16T11:41:34;27.20;99.90
12602;DHT22;30282;16.436;99.370;2023-01-16T11:44:14;27.10;99.90
12602;DHT22;30282;16.436;99.370;2023-01-16T11:47:01;27.10;99.90
12602;DHT22;30282;16.436;99.370;2023-01-16T11:49:35;27.00;99.90
12602;DHT22;30282;16.436;99.370;2023-01-16T11:52:04;27.00;99.90
12602;DHT22;30282;16.436;99.370;2023-01-16T11:54:34;26.90;99.90
12602;DHT22;30282;16.436;99.370;2023-01-16T11:57:27;26.90;99.90
12602;DHT22;30282;16.436;99.370;2023-01-16T12:00:35;26.80;99.90
12602;DHT22;30282;16.436;99.370;2023-01-16T12:06:15;26.80;99.90
12602;DHT22;30282;16.436;99.370;2023-01-16T12:09:01;26.90;99.90
12602;DHT22;30282;16.436;99.370;2023-01-16T12:11:50;26.80;99.90
12602;DHT22;30282;16.436;99.370;2023-01-16T12:14:27;26.80;99.90
12602;DHT22;30282;16.436;99.370;2023-01-16T12:17:09;26.80;99.90
12602;DHT22;30282;16.436;99.370;2023-01-16T12:20:12;26.80;99.90
12602;DHT22;30282;16.436;99.370;2023-01-16T12:23:03;26.70;99.90
12602;DHT22;30282;16.436;99.370;2023-01-16T12:25:41;26.60;99.90
12602;DHT22;30282;16.436;99.370;2023-01-16T12:28:20;26.60;99.90
12602;DHT22;30282;16.436;99.370;2023-01-16T12:31:08;26.60;99.90
12602;DHT22;30282;16.436;99.370;2023-01-16T12:34:33;26.60;99.90
12602;DHT22;30282;16.436;99.370;2023-01-16T12:37:21;26.60;99.90
12602;DHT22;30282;16.436;99.370;2023-01-16T12:40:03;26.60;99.90
12602;DHT22;30282;16.436;99.370;2023-01-16T12:42:47;26.50;99.90
12602;DHT22;30282;16.436;99.370;2023-01-16T12:45:41;26.50;99.90
12602;DHT22;30282;16.436;99.370;2023-01-16T12:48:32;26.40;99.90
12602;DHT22;30282;16.436;99.370;2023-01-16T12:51:17;26.30;99.90
12602;DHT22;30282;16.436;99.370;2023-01-16T12:57:02;26.10;99.90
12602;DHT22;30282;16.436;99.370;2023-01-16T12:59:38;26.00;99.90
12602;DHT22;30282;16.436;99.370;2023-01-16T13:02:18;25.90;99.90
12602;DHT22;30282;16.436;99.370;2023-01-16T13:04:53;25.80;99.90
12602;DHT22;30282;16.436;99.370;2023-01-16T13:07:27;25.80;99.90
12602;DHT22;30282;16.436;99.370;2023-01-16T13:10:01;25.70;99.90
12602;DHT22;30282;16.436;99.370;2023-01-16T13:12:50;25.70;99.90
12602;DHT22;30282;16.436;99.370;2023-01-16T13:15:39;25.70;99.90
12602;DHT22;30282;16.436;99.370;2023-01-16T13:18:16;25.60;99.90
12602;DHT22;30282;16.436;99.370;2023-01-16T13:20:52;25.50;99.90
12602;DHT22;30282;16.436;99.370;2023-01-16T13:23:26;25.30;99.90
12602;DHT22;30282;16.436;99.370;2023-01-16T13:25:59;25.20;99.90
12602;DHT22;30282;16.436;99.370;2023-01-16T13:28:37;25.10;99.90
12602;DHT22;30282;16.436;99.370;2023-01-16T13:31:17;25.10;99.90
12602;DHT22;30282;16.436;99.370;2023-01-16T13:33:50;24.90;99.90
12602;DHT22;30282;16.436;99.370;2023-01-16T13:42:28;24.70;99.90
12602;DHT22;30282;16.436;99.370;2023-01-16T13:45:06;24.70;99.90
12602;DHT22;30282;16.436;99.370;2023-01-16T13:47:57;24.70;99.90
12602;DHT22;30282;16.436;99.370;2023-01-16T13:50:28;24.50;99.90
12602;DHT22;30282;16.436;99.370;2023-01-16T13:53:02;24.40;99.90
12602;DHT22;30282;16.436;99.370;2023-01-16T13:55:33;24.30;99.90
12602;DHT22;30282;16.436;99.370;2023-01-16T13:58:19;24.20;99.90
12602;DHT22;30282;16.436;99.370;2023-01-16T14:00:59;24.00;99.90
12602;DHT22;30282;16.436;99.370;2023-01-16T14:03:29;24.00;99.90
12602;DHT22;30282;16.436;99.370;2023-01-16T14:06:19;24.10;99.90
12602;DHT22;30282;16.436;99.370;2023-01-16T14:08:50;24.10;99.90
12602;DHT22;30282;16.436;99.370;2023-01-16T14:14:50;23.90;99.90
12602;DHT22;30282;16.436;99.370;2023-01-16T14:18:13;23.70;99.90
12602;DHT22;30282;16.436;99.370;2023-01-16T14:20:48;23.60;99.90
12602;DHT22;30282;16.436;99.370;2023-01-16T14:23:24;23.50;99.90
12602;DHT22;30282;16.436;99.370;2023-01-16T14:26:19;23.60;99.90
12602;DHT22;30282;16.436;99.370;2023-01-16T14:28:49;23.40;99.90
12602;DHT22;30282;16.436;99.370;2023-01-16T14:31:26;23.30;99.90
12602;DHT22;30282;16.436;99.370;2023-01-16T14:33:58;23.40;99.90
12602;DHT22;30282;16.436;99.370;2023-01-16T14:36:28;23.40;99.90
12602;DHT22;30282;16.436;99.370;2023-01-16T14:38:58;23.40;99.90
12602;DHT22;30282;16.436;99.370;2023-01-16T14:41:30;23.50;99.90
12602;DHT22;30282;16.436;99.370;2023-01-16T14:44:20;23.50;99.90
12602;DHT22;30282;16.436;99.370;2023-01-16T14:47:11;23.50;99.90
12602;DHT22;30282;16.436;99.370;2023-01-16T14:50:14;23.50;99.90
12602;DHT22;30282;16.436;99.370;2023-01-16T14:53:16;23.50;99.90
12602;DHT22;30282;16.436;99.370;2023-01-16T14:56:05;23.50;99.90
12602;DHT22;30282;16.436;99.370;2023-01-16T14:58:39;23.30;99.90
12602;DHT22;30282;16.436;99.370;2023-01-16T15:01:20;23.00;99.90
12602;DHT22;30282;16.436;99.370;2023-01-16T15:04:09;22.90;99.90
12602;DHT22;30282;16.436;99.370;2023-01-16T15:06:43;22.80;99.90
12602;DHT22;30282;16.436;99.370;2023-01-16T15:09:15;22.60;99.90
12602;DHT22;30282;16.436;99.370;2023-01-16T15:11:50;22.50;99.90
12602;DHT22;30282;16.436;99.370;2023-01-16T15:14:21;22.40;99.90
12602;DHT22;30282;16.436;99.370;2023-01-16T15:17:13;22.40;99.90
12602;DHT22;30282;16.436;99.370;2023-01-16T15:20:19;22.20;99.90
12602;DHT22;30282;16.436;99.370;2023-01-16T15:23:15;22.30;99.90
12602;DHT22;30282;16.436;99.370;2023-01-16T15:26:22;22.30;99.90
12602;DHT22;30282;16.436;99.370;2023-01-16T15:29:00;22.20;99.90
12602;DHT22;30282;16.436;99.370;2023-01-16T15:31:33;22.20;99.90
12602;DHT22;30282;16.436;99.370;2023-01-16T15:34:19;22.10;99.90
12602;DHT22;30282;16.436;99.370;2023-01-16T15:36:51;22.10;99.90
12602;DHT22;30282;16.436;99.370;2023-01-16T15:39:22;22.20;99.90
12602;DHT22;30282;16.436;99.370;2023-01-16T15:41:58;22.20;99.90
12602;DHT22;30282;16.436;99.370;2023-01-16T15:44:46;22.20;99.90
12602;DHT22;30282;16.436;99.370;2023-01-16T15:47:53;22.30;99.90
12602;DHT22;30282;16.436;99.370;2023-01-16T15:50:42;22.30;99.90
12602;DHT22;30282;16.436;99.370;2023-01-16T15:53:15;22.30;99.90
12602;DHT22;30282;16.436;99.370;2023-01-16T15:55:47;22.40;99.90
12602;DHT22;30282;16.436;99.370;2023-01-16T15:58:18;22.50;99.90
12602;DHT22;30282;16.436;99.370;2023-01-16T16:00:57;22.50;99.90
12602;DHT22;30282;16.436;99.370;2023-01-16T16:03:32;22.60;99.90
12602;DHT22;30282;16.436;99.370;2023-01-16T16:06:06;22.60;99.90
12602;DHT22;30282;16.436;99.370;2023-01-16T16:08:39;22.60;99.90
12602;DHT22;30282;16.436;99.370;2023-01-16T16:11:13;22.50;99.90
12602;DHT22;30282;16.436;99.370;2023-01-16T16:14:01;22.50;99.90
12602;DHT22;30282;16.436;99.370;2023-01-16T16:16:30;22.30;99.90
12602;DHT22;30282;16.436;99.370;2023-01-16T16:19:31;22.30;99.90
12602;DHT22;30282;16.436;99.370;2023-01-16T16:22:02;22.30;99.90
12602;DHT22;30282;16.436;99.370;2023-01-16T16:24:50;22.30;99.90
12602;DHT22;30282;16.436;99.370;2023-01-16T16:27:20;22.30;99.90
12602;DHT22;30282;16.436;99.370;2023-01-16T16:29:50;22.30;99.90